ENGINEERING TRACK TESTING
Weather & Rail Temperature Monitoring

Weather station MICITY

Michigan City, Indiana

Measurement History

Home Current History Weekly graphs

,

to download data from the start of , to the end of ,

Conditions for past 24 hours (since 09/01/2026 01:29 AM)

Time Main track S rail Main track N rail Siding S rail Siding N rail Outside Air
Temperature
Solar
Radiation
Max. Wind Humidity Air Pressure Rain
SpeedDir
09/02/2026 01:15 AM 81 °F 81 °F 81 °F 81 °F 83.1 °F 0 watt/m2 7 mph SE 75 % 29.387 in Hg 0 in
09/02/2026 01:00 AM 49 °F 81 °F 82 °F 82 °F 83.6 °F 0 watt/m2 8 mph ESE 74 % 29.384 in Hg 0 in
09/02/2026 12:45 AM 47 °F 82 °F 82 °F 82 °F 83.9 °F 0 watt/m2 8 mph SE 75 % 29.387 in Hg 0 in
09/02/2026 12:30 AM 51 °F 82 °F 82 °F 82 °F 84.1 °F 0 watt/m2 6 mph SE 75 % 29.388 in Hg 0 in
09/02/2026 12:15 AM 51 °F 83 °F 83 °F 83 °F 84.2 °F 0 watt/m2 7 mph W 76 % 29.388 in Hg 0 in
09/02/2026 12:00 AM 51 °F 83 °F 83 °F 83 °F 84.3 °F 0 watt/m2 8 mph SE 76 % 29.386 in Hg 0 in
09/01/2026 11:45 PM 81 °F 84 °F 84 °F 84 °F 84.4 °F 0 watt/m2 11 mph SSE 77 % 29.384 in Hg 0 in
09/01/2026 11:30 PM 72 °F 84 °F 84 °F 84 °F 84.5 °F 0 watt/m2 6 mph ESE 78 % 29.386 in Hg 0 in
09/01/2026 11:15 PM 50 °F 85 °F 85 °F 85 °F 84.5 °F 0 watt/m2 7 mph SE 79 % 29.388 in Hg 0 in
09/01/2026 11:00 PM 50 °F 86 °F 86 °F 86 °F 84.6 °F 0 watt/m2 5 mph SE 79 % 29.385 in Hg 0 in
09/01/2026 10:45 PM 52 °F 86 °F 86 °F 86 °F 84.8 °F 0 watt/m2 4 mph SE 80 % 29.387 in Hg 0 in
09/01/2026 10:30 PM 53 °F 87 °F 87 °F 87 °F 85.1 °F 0 watt/m2 6 mph E 80 % 29.382 in Hg 0 in
09/01/2026 10:15 PM 48 °F 88 °F 88 °F 88 °F 85.4 °F 0 watt/m2 6 mph E 81 % 29.38 in Hg 0 in
09/01/2026 10:00 PM 47 °F 89 °F 89 °F 89 °F 85.8 °F 0 watt/m2 5 mph SE 81 % 29.377 in Hg 0 in
09/01/2026 09:45 PM 46 °F 90 °F 90 °F 90 °F 86.2 °F 0 watt/m2 4 mph SE 80 % 29.373 in Hg 0 in
09/01/2026 09:30 PM 90 °F 91 °F 91 °F 91 °F 86.7 °F 0 watt/m2 6 mph E 79 % 29.366 in Hg 0 in
09/01/2026 09:15 PM 92 °F 92 °F 92 °F 92 °F 87.3 °F 0 watt/m2 8 mph ENE 78 % 29.364 in Hg 0 in
09/01/2026 09:00 PM 93 °F 93 °F 93 °F 93 °F 87.6 °F 0 watt/m2 9 mph ENE 77 % 29.355 in Hg 0 in
09/01/2026 08:45 PM 94 °F 94 °F 95 °F 95 °F 88.1 °F 0 watt/m2 5 mph ENE 77 % 29.358 in Hg 0 in
09/01/2026 08:30 PM 96 °F 96 °F 96 °F 96 °F 88.2 °F 5 watt/m2 7 mph SE 76 % 29.361 in Hg 0 in
09/01/2026 08:15 PM 97 °F 98 °F 98 °F 98 °F 88.8 °F 17 watt/m2 8 mph ESE 75 % 29.363 in Hg 0 in
09/01/2026 08:00 PM 93 °F 99 °F 99 °F 100 °F 89.4 °F 35 watt/m2 7 mph ESE 74 % 29.363 in Hg 0 in
09/01/2026 07:45 PM 101 °F 101 °F 101 °F 101 °F 89.8 °F 55 watt/m2 7 mph SE 73 % 29.364 in Hg 0 in
09/01/2026 07:30 PM 102 °F 103 °F 103 °F 103 °F 90.1 °F 66 watt/m2 8 mph ESE 73 % 29.367 in Hg 0 in
09/01/2026 07:15 PM 104 °F 104 °F 105 °F 105 °F 90.4 °F 74 watt/m2 9 mph E 73 % 29.367 in Hg 0 in
09/01/2026 07:00 PM 106 °F 106 °F 106 °F 107 °F 90.8 °F 121 watt/m2 10 mph E 72 % 29.368 in Hg 0 in
09/01/2026 06:45 PM 107 °F 108 °F 108 °F 109 °F 91 °F 150 watt/m2 12 mph ESE 71 % 29.373 in Hg 0 in
09/01/2026 06:30 PM 109 °F 110 °F 110 °F 110 °F 91.4 °F 219 watt/m2 12 mph E 71 % 29.371 in Hg 0 in
09/01/2026 06:15 PM 111 °F 111 °F 111 °F 112 °F 92 °F 273 watt/m2 8 mph E 70 % 29.371 in Hg 0 in
09/01/2026 06:00 PM 112 °F 113 °F 113 °F 113 °F 92.1 °F 268 watt/m2 10 mph E 69 % 29.371 in Hg 0 in
09/01/2026 05:45 PM 114 °F 114 °F 114 °F 115 °F 92.6 °F 338 watt/m2 11 mph WSW 68 % 29.373 in Hg 0 in
09/01/2026 05:30 PM 115 °F 115 °F 115 °F 116 °F 92.6 °F 399 watt/m2 12 mph E 68 % 29.372 in Hg 0 in
09/01/2026 05:15 PM 115 °F 116 °F 116 °F 116 °F 92.8 °F 416 watt/m2 9 mph E 67 % 29.374 in Hg 0 in
09/01/2026 05:00 PM 116 °F 117 °F 117 °F 117 °F 92.8 °F 536 watt/m2 9 mph ESE 66 % 29.375 in Hg 0 in
09/01/2026 04:45 PM 117 °F 117 °F 117 °F 118 °F 92.2 °F 288 watt/m2 9 mph SE 67 % 29.376 in Hg 0 in
09/01/2026 04:30 PM 118 °F 119 °F 119 °F 120 °F 92.5 °F 314 watt/m2 9 mph ENE 65 % 29.384 in Hg 0 in
09/01/2026 04:15 PM 120 °F 121 °F 121 °F 121 °F 93.2 °F 391 watt/m2 12 mph ENE 67 % 29.382 in Hg 0 in
09/01/2026 04:00 PM 122 °F 123 °F 123 °F 123 °F 94.3 °F 678 watt/m2 10 mph WSW 64 % 29.379 in Hg 0 in
09/01/2026 03:45 PM 122 °F 123 °F 123 °F 123 °F 93.2 °F 653 watt/m2 9 mph E 66 % 29.381 in Hg 0 in
09/01/2026 03:30 PM 121 °F 122 °F 123 °F 123 °F 92.8 °F 711 watt/m2 10 mph WSW 67 % 29.382 in Hg 0 in
09/01/2026 03:15 PM 121 °F 122 °F 123 °F 122 °F 91.4 °F 722 watt/m2 10 mph W 69 % 29.391 in Hg 0 in
09/01/2026 03:00 PM 121 °F 122 °F 123 °F 122 °F 90.6 °F 720 watt/m2 9 mph WSW 70 % 29.393 in Hg 0 in
09/01/2026 02:45 PM 121 °F 121 °F 122 °F 122 °F 90.8 °F 781 watt/m2 9 mph WSW 70 % 29.401 in Hg 0 in
09/01/2026 02:30 PM 120 °F 120 °F 121 °F 120 °F 90.3 °F 791 watt/m2 9 mph WSW 71 % 29.403 in Hg 0 in
09/01/2026 02:15 PM 118 °F 119 °F 119 °F 119 °F 90.3 °F 792 watt/m2 10 mph WSW 71 % 29.4 in Hg 0 in
09/01/2026 02:00 PM 117 °F 118 °F 118 °F 118 °F 90.1 °F 787 watt/m2 10 mph WSW 71 % 29.4 in Hg 0 in
09/01/2026 01:45 PM 115 °F 116 °F 116 °F 116 °F 89.5 °F 832 watt/m2 11 mph WSW 72 % 29.403 in Hg 0 in
09/01/2026 01:30 PM 114 °F 114 °F 115 °F 114 °F 88.4 °F 638 watt/m2 9 mph W 73 % 29.402 in Hg 0 in
09/01/2026 01:15 PM 113 °F 113 °F 114 °F 114 °F 88.2 °F 787 watt/m2 10 mph WSW 73 % 29.402 in Hg 0 in
09/01/2026 01:00 PM 111 °F 111 °F 112 °F 112 °F 88.3 °F 795 watt/m2 8 mph WSW 72 % 29.404 in Hg 0 in
09/01/2026 12:45 PM 105 °F 109 °F 110 °F 109 °F 87.8 °F 794 watt/m2 9 mph WSW 73 % 29.402 in Hg 0 in
09/01/2026 12:30 PM 104 °F 105 °F 107 °F 106 °F 87.4 °F 476 watt/m2 8 mph W 74 % 29.402 in Hg 0 in
09/01/2026 12:15 PM 94 °F 104 °F 105 °F 104 °F 87.4 °F 485 watt/m2 6 mph W 74 % 29.406 in Hg 0 in
09/01/2026 12:00 PM 102 °F 103 °F 104 °F 103 °F 86.6 °F 615 watt/m2 8 mph W 73 % 29.403 in Hg 0 in
09/01/2026 11:45 AM 41 °F 99 °F 100 °F 100 °F 86.1 °F 587 watt/m2 8 mph W 74 % 29.404 in Hg 0 in
09/01/2026 11:30 AM 41 °F 97 °F 98 °F 97 °F 85.1 °F 626 watt/m2 8 mph WSW 76 % 29.405 in Hg 0 in
09/01/2026 11:15 AM 39 °F 94 °F 94 °F 94 °F 84 °F 484 watt/m2 6 mph W 76 % 29.401 in Hg 0 in
09/01/2026 11:00 AM 41 °F 91 °F 92 °F 92 °F 83 °F 525 watt/m2 6 mph S 76 % 29.4 in Hg 0 in
09/01/2026 10:45 AM 88 °F 88 °F 89 °F 89 °F 82 °F 575 watt/m2 10 mph W 78 % 29.408 in Hg 0 in
09/01/2026 10:30 AM 71 °F 84 °F 85 °F 85 °F 80.9 °F 510 watt/m2 8 mph SE 80 % 29.41 in Hg 0 in
09/01/2026 10:15 AM 71 °F 81 °F 82 °F 81 °F 79.6 °F 378 watt/m2 6 mph WNW 81 % 29.413 in Hg 0 in
09/01/2026 10:00 AM 67 °F 79 °F 79 °F 79 °F 78.5 °F 152 watt/m2 5 mph SW 83 % 29.41 in Hg 0 in
09/01/2026 09:45 AM 61 °F 78 °F 78 °F 78 °F 77.9 °F 95 watt/m2 7 mph W 84 % 29.411 in Hg 0 in
09/01/2026 09:30 AM 48 °F 77 °F 78 °F 77 °F 77.8 °F 88 watt/m2 7 mph WSW 84 % 29.409 in Hg 0 in
09/01/2026 09:15 AM 43 °F 76 °F 77 °F 77 °F 77.6 °F 92 watt/m2 5 mph SE 84 % 29.416 in Hg 0 in
09/01/2026 09:00 AM 76 °F 76 °F 76 °F 76 °F 77.6 °F 70 watt/m2 4 mph ESE 84 % 29.41 in Hg 0 in
09/01/2026 08:45 AM 75 °F 75 °F 76 °F 75 °F 77.4 °F 83 watt/m2 5 mph SSE 84 % 29.408 in Hg 0 in
09/01/2026 08:30 AM 75 °F 75 °F 75 °F 75 °F 76.9 °F 81 watt/m2 6 mph WNW 85 % 29.412 in Hg 0 in
09/01/2026 08:15 AM 74 °F 74 °F 74 °F 74 °F 76.6 °F 35 watt/m2 9 mph WNW 86 % 29.411 in Hg 0 in
09/01/2026 08:00 AM 74 °F 74 °F 74 °F 74 °F 76.7 °F 22 watt/m2 5 mph WSW 85 % 29.404 in Hg 0 in
09/01/2026 07:45 AM 74 °F 74 °F 74 °F 74 °F 76.9 °F 26 watt/m2 4 mph ENE 85 % 29.385 in Hg 0 in
09/01/2026 07:30 AM 74 °F 74 °F 74 °F 74 °F 77.1 °F 6 watt/m2 5 mph SSE 84 % 29.393 in Hg 0 in
09/01/2026 07:15 AM 74 °F 74 °F 74 °F 74 °F 77.3 °F 0 watt/m2 2 mph E 83 % 29.395 in Hg 0 in
09/01/2026 07:00 AM 74 °F 74 °F 74 °F 74 °F 77.5 °F 0 watt/m2 4 mph WSW 83 % 29.394 in Hg 0 in
09/01/2026 06:45 AM 74 °F 74 °F 75 °F 74 °F 77.6 °F 0 watt/m2 4 mph WSW 83 % 29.389 in Hg 0 in
09/01/2026 06:30 AM 75 °F 75 °F 75 °F 75 °F 78.1 °F 0 watt/m2 4 mph WNW 81 % 29.385 in Hg 0 in
09/01/2026 06:15 AM 75 °F 75 °F 75 °F 75 °F 78 °F 0 watt/m2 4 mph E 81 % 29.388 in Hg 0 in
09/01/2026 06:00 AM 75 °F 75 °F 75 °F 75 °F 78.1 °F 0 watt/m2 4 mph E 80 % 29.383 in Hg 0 in
09/01/2026 05:45 AM 75 °F 75 °F 75 °F 75 °F 78.2 °F 0 watt/m2 3 mph SE 80 % 29.383 in Hg 0 in
09/01/2026 05:30 AM 75 °F 75 °F 75 °F 75 °F 78.4 °F 0 watt/m2 3 mph SE 79 % 29.386 in Hg 0 in
09/01/2026 05:15 AM 75 °F 75 °F 75 °F 75 °F 78.7 °F 0 watt/m2 2 mph SE 78 % 29.38 in Hg 0 in
09/01/2026 05:00 AM 49 °F 75 °F 75 °F 75 °F 79 °F 0 watt/m2 2 mph SE 78 % 29.382 in Hg 0 in
09/01/2026 04:45 AM 47 °F 75 °F 76 °F 75 °F 79.2 °F 0 watt/m2 2 mph SE 77 % 29.376 in Hg 0 in
09/01/2026 04:30 AM 48 °F 75 °F 76 °F 75 °F 79.5 °F 0 watt/m2 2 mph SE 77 % 29.376 in Hg 0 in
09/01/2026 04:15 AM 45 °F 75 °F 76 °F 75 °F 79.6 °F 0 watt/m2 3 mph ESE 76 % 29.37 in Hg 0 in
09/01/2026 04:00 AM 64 °F 75 °F 76 °F 75 °F 79.9 °F 0 watt/m2 4 mph SE 76 % 29.367 in Hg 0 in
09/01/2026 03:45 AM 75 °F 75 °F 76 °F 75 °F 80.5 °F 0 watt/m2 7 mph ESE 75 % 29.365 in Hg 0 in
09/01/2026 03:30 AM 76 °F 75 °F 76 °F 76 °F 81 °F 0 watt/m2 8 mph WSW 74 % 29.367 in Hg 0 in
09/01/2026 03:15 AM 76 °F 76 °F 76 °F 76 °F 81.4 °F 0 watt/m2 10 mph SE 73 % 29.364 in Hg 0 in
09/01/2026 03:00 AM 76 °F 76 °F 76 °F 76 °F 81.5 °F 0 watt/m2 10 mph WSW 73 % 29.357 in Hg 0 in
09/01/2026 02:45 AM 76 °F 75 °F 76 °F 76 °F 81.3 °F 0 watt/m2 9 mph ENE 73 % 29.36 in Hg 0 in
09/01/2026 02:30 AM 76 °F 75 °F 76 °F 75 °F 81.4 °F 0 watt/m2 5 mph SE 73 % 29.358 in Hg 0 in
09/01/2026 02:15 AM 76 °F 75 °F 76 °F 75 °F 81.5 °F 0 watt/m2 7 mph SE 73 % 29.361 in Hg 0 in
09/01/2026 02:00 AM 76 °F 75 °F 76 °F 76 °F 81.6 °F 0 watt/m2 8 mph ESE 72 % 29.364 in Hg 0 in
09/01/2026 01:45 AM 76 °F 75 °F 76 °F 75 °F 81.4 °F 0 watt/m2 9 mph ESE 73 % 29.367 in Hg 0 in
09/01/2026 01:30 AM 75 °F 75 °F 76 °F 75 °F 81.2 °F 0 watt/m2 9 mph ENE 73 % 29.366 in Hg 0 in

Alarms Station information Line AM Subdivision NILES